METAR

METAR LDZA 280730Z 22014G24KT 180V250 CAVOK 13/02 Q1008 NOSIG =
METAR LDSP 280730Z 11005KT 080V140 9999 FEW020 BKN030 14/11 Q1013 NOSIG=
METAR LDDU 280730Z 11009KT 9999 FEW020 SCT045 14/09 Q1015 NOSIG =
METAR LDZD 280730Z 12005KT 090V150 CAVOK 10/10 Q1012 NOSIG =
METAR LDPL 280730Z 21007KT 170V240 9999 FEW058 12/07 Q1011=
METAR LDOS 280730Z 16009KT CAVOK 11/06 Q1009=
METAR LDRI 280730Z 20010KT 150V240 9999 FEW010 BKN050 11/05 Q1011=

TAF

TAF LDZA 280525Z 2806/0106 23015KT CAVOK
                 TX16/2813Z TN04/0105Z
           TEMPO 2808/2824 23015G25KT
           TEMPO 0102/0106 RA BKN010 BKN035
           BECMG 0104/0106 03015KT=
TAF LDSP 280529Z 2806/0106 11008KT 9999 FEW020 SCT030
                 TX16/2812Z TN10/0105Z
           TEMPO 2815/2820 11014KT
           BECMG 0103/0105 30012KT
           TEMPO 0103/0106 4000 RA
    PROB40 TEMPO 0103/0106 SHRA SCT020TCU=
TAF LDDU 280529Z 2806/0106 12008KT 9999 FEW050
                 TX15/2812Z TN12/2806Z
           BECMG 2808/2810 12018KT=
TAF AMD LDZD 280552Z 2806/0106 11004KT 0800 FG NSC
                     TX16/2813Z TN05/2806Z
               BECMG 2806/2808 9999 NSW
               BECMG 2810/2812 15012KT
               BECMG 2823/0101 24015KT
               TEMPO 0102/0106 4000 RA
        PROB40 TEMPO 0102/0104 SHRA SCT020TCU=
TAF LDPL 280525Z 2806/0106 VRB02KT 9999 SCT015
                 TX13/2813Z TN06/0105Z
    PROB30 TEMPO 2806/2809 4000 BR BKN005
           BECMG 2807/2809 21012KT
    PROB30 TEMPO 2809/2822 21015G25KT
           TEMPO 2818/0103 4000 RA BR BKN005 BKN025
    PROB30 TEMPO 2820/0103 3000 TSRA FEW020CB BKN025
           BECMG 0100/0102 27010KT=
TAF LDOS 280525Z 2806/0106 21012KT CAVOK
                 TX18/2813Z TN06/2806Z
           TEMPO 0104/0106 4000 RA BKN010 BKN030=
TAF LDRI 280619Z 2807/0106 14006KT 9999 SCT010 BKN035
                 TX13/2813Z TN06/0105Z
           BECMG 2818/2820 21012KT
           TEMPO 2820/0106 4000 RA BKN010 OVC030
    PROB30 TEMPO 2820/0106 3000 TSRA FEW020CB BKN025=
TAF AMD LDLO 271548Z 2715/2812 CNL=

SIGMET

AIRMET

LDZO AIRMET 2 VALID 280400/280800 LDZA-
LDZO ZAGREB FIR MOD TURB FCST WI N4433 E01507 - N4534 E01433 - N4629
E01626 - N4545 E01758 - N4346 E01646 - N4410 E01541 - N4433 E01507
SFC/FL100 STNR INTSF=
LDZO AIRMET 3 VALID 280400/280800 LDZA-
LDZO ZAGREB FIR MT OBSC OBS WI N4525 E01517 - N4230 E01824 - N4347
E01612 - N4524 E01355 - N4525 E01517 ABV FL020 STNR NC=

Ukoliko se brzina i smjer vjetra ne mogu odrediti zbog privremenog kvara sustava/indikatora,
informacija o vjetru u METAR izvješću bit će prikazana kao "/////KT".

 

         

      Politika MET podataka      

 

Disclaimer

 

In case of temporary system/sensor failure, wind speed and direction data will be represented as "/////KT" in METAR report.